RJSA METAR and TAF | Updated Today

RJSA METAR

Aomori Airport

Observation time: 6:55 hr. ago

RJSA 061211Z 22009KT 2500 -SHSN FEW001 SCT007 BKN020 01/00 Q1017 RMK 1ST001 4ST007 7CU020 A3005

Need help? Read our tutorial on how to read METARs or read the parsed version below.

Aomori Airport (RJSA) METAR

  • Weather conditions on Mon, 06 Feb 2023 12:11:00 +0000 (6:55 hr. ago):
  • Present conditions: Light showers of snow
  • Clouds: A few at 30 meters; scattered at 213 meters; broken sky at 610 meters
  • Visibility: 2500 meters
  • Wind: 220 degrees at 9 knots
  • Temperature: 1 celsius
  • Dew point: 0 celsius
  • Pressure: 1017 millibars
  • Remarks: 1ST001 4ST007 7CU020 A3005


Useful to know...

RJSA TAF

Aomori Airport

TAF RJSA 061705Z 0618/0800 24005KT 9999 FEW020 BKN040 TEMPO 0618/0621 3000 BR FEW003 BKN005
Observation time: 2:01 hr. ago
Need help? Read our tutorial on how to read TAFs or read the parsed version below.

Parsed version of TAF for Aomori Airport (RJSA)

  • From 06 February at 18:00 UTC, to day 08 of the month at 00:00 UTC
  • Clouds: A few at 610 meters; broken sky at 1219 meters
  • Visibility: Greater than 10 km
  • Wind: 240 degrees at 5
  • Expected to arise temporarily, from 06 February at 18:00 UTC, to day 06 of the month at 21:00 UTC
  • Clouds: A few at 91 meters; broken sky at 152 meters
  • Visibility: 3000 meters
  • Other: Mist